createdAt,value
2023-01-07T00:01:31.760Z,36.80
2023-01-07T00:04:01.505Z,38.53
2023-01-07T00:06:31.164Z,43.13
2023-01-07T00:08:58.526Z,39.90
2023-01-07T00:11:28.715Z,41.78
2023-01-07T00:13:58.105Z,42.25
2023-01-07T00:16:28.939Z,46.42
2023-01-07T00:18:59.251Z,47.00
2023-01-07T00:21:27.913Z,44.08
2023-01-07T00:24:01.631Z,41.13
2023-01-07T00:26:37.519Z,47.17
2023-01-07T00:29:06.072Z,46.17
2023-01-07T00:31:36.544Z,51.25
2023-01-07T00:34:04.539Z,49.10
2023-01-07T00:36:34.221Z,49.22
2023-01-07T00:39:07.363Z,50.90
2023-01-07T00:41:35.260Z,54.90
2023-01-07T00:44:03.643Z,47.50
2023-01-07T00:46:31.231Z,51.38
2023-01-07T00:49:01.473Z,53.10
2023-01-07T00:51:28.930Z,51.78
2023-01-07T00:53:56.602Z,47.55
2023-01-07T00:56:23.873Z,51.85
2023-01-07T00:58:52.589Z,51.13
2023-01-07T01:01:20.107Z,44.08
2023-01-07T01:03:47.556Z,43.42
2023-01-07T01:06:16.619Z,45.90
2023-01-07T01:08:46.203Z,47.03
2023-01-07T01:11:16.015Z,43.65
2023-01-07T01:13:45.056Z,50.93
2023-01-07T01:16:17.956Z,49.63
2023-01-07T01:18:46.266Z,49.22
2023-01-07T01:21:15.298Z,55.05
2023-01-07T01:23:43.183Z,46.00
2023-01-07T01:26:16.758Z,45.00
2023-01-07T01:28:45.507Z,48.10
2023-01-07T01:31:16.525Z,49.10
2023-01-07T01:33:49.102Z,45.72
2023-01-07T01:36:17.832Z,44.72
2023-01-07T01:38:45.269Z,47.60
2023-01-07T01:41:16.373Z,44.58
2023-01-07T01:43:45.218Z,50.10
2023-01-07T01:46:37.840Z,47.17
2023-01-07T01:49:10.749Z,44.20
2023-01-07T01:51:41.827Z,55.63
2023-01-07T01:56:43.278Z,48.67
2023-01-07T01:59:16.443Z,43.45
2023-01-07T02:01:44.105Z,48.55
2023-01-07T02:04:18.752Z,46.10
2023-01-07T02:07:03.086Z,49.72
2023-01-07T02:09:31.579Z,53.30
2023-01-07T02:12:14.772Z,41.47
2023-01-07T02:15:03.937Z,51.97
2023-01-07T02:17:47.952Z,41.67
2023-01-07T02:20:21.190Z,48.75
2023-01-07T02:23:04.970Z,42.15
2023-01-07T02:25:50.969Z,45.65
2023-01-07T02:28:21.193Z,48.10
2023-01-07T02:31:04.024Z,40.90
2023-01-07T02:33:42.007Z,44.40
2023-01-07T02:36:41.951Z,52.85
2023-01-07T02:39:26.334Z,41.78
2023-01-07T02:42:04.348Z,46.17
2023-01-07T02:44:44.200Z,51.80
2023-01-07T02:47:24.592Z,46.58
2023-01-07T02:49:52.314Z,47.40
2023-01-07T02:52:21.520Z,48.35
2023-01-07T02:55:03.465Z,43.33
2023-01-07T02:57:37.434Z,45.80
2023-01-07T03:00:36.913Z,45.95
2023-01-07T03:03:29.324Z,48.58
2023-01-07T03:06:34.902Z,51.35
2023-01-07T03:09:26.612Z,41.58
2023-01-07T03:12:10.094Z,42.53
2023-01-07T03:14:46.198Z,47.63
2023-01-07T03:17:19.768Z,42.65
2023-01-07T03:19:55.057Z,45.92
2023-01-07T03:22:26.037Z,41.33
2023-01-07T03:24:56.836Z,42.53
2023-01-07T03:27:27.777Z,42.22
2023-01-07T03:32:30.690Z,39.63
2023-01-07T03:34:58.780Z,36.60
2023-01-07T03:37:29.128Z,46.20
2023-01-07T03:40:00.148Z,41.75
2023-01-07T03:42:40.645Z,37.58
2023-01-07T03:45:29.044Z,36.33
2023-01-07T03:50:33.629Z,40.45
2023-01-07T03:53:01.114Z,37.20
2023-01-07T03:55:29.822Z,34.33
2023-01-07T03:57:59.093Z,37.88
2023-01-07T04:00:27.733Z,35.15
2023-01-07T04:03:02.595Z,34.50
2023-01-07T04:05:37.462Z,30.13
2023-01-07T04:08:05.466Z,35.95
2023-01-07T04:10:37.175Z,36.40
2023-01-07T04:13:04.609Z,36.78
2023-01-07T04:15:32.066Z,34.33
2023-01-07T04:17:59.703Z,33.10
2023-01-07T04:20:28.320Z,34.58
2023-01-07T04:22:55.669Z,36.58
2023-01-07T04:25:23.488Z,35.60
2023-01-07T04:27:51.113Z,32.10
2023-01-07T04:30:18.674Z,33.92
2023-01-07T04:32:46.341Z,35.95
2023-01-07T04:35:13.643Z,35.88
2023-01-07T04:37:41.049Z,31.10
2023-01-07T04:40:08.978Z,35.10
2023-01-07T04:42:37.500Z,30.23
2023-01-07T04:45:07.615Z,29.40
2023-01-07T04:47:35.030Z,29.67
2023-01-07T04:50:03.933Z,32.53
2023-01-07T04:52:33.495Z,29.35
2023-01-07T04:55:00.794Z,29.42
2023-01-07T04:57:28.345Z,27.20
2023-01-07T04:59:55.637Z,28.20
2023-01-07T05:02:23.398Z,28.52
2023-01-07T05:04:51.188Z,30.67
2023-01-07T05:07:19.944Z,24.63
2023-01-07T05:09:49.160Z,28.13
2023-01-07T05:12:16.464Z,26.77
2023-01-07T05:14:44.711Z,32.40
2023-01-07T05:17:12.602Z,25.70
2023-01-07T05:19:40.771Z,28.33
2023-01-07T05:22:12.716Z,27.63
2023-01-07T05:24:41.743Z,28.50
2023-01-07T05:27:09.597Z,25.95
2023-01-07T05:29:38.218Z,25.70
2023-01-07T05:32:06.858Z,26.63
2023-01-07T05:34:35.529Z,24.95
2023-01-07T05:37:03.734Z,25.70
2023-01-07T05:39:31.932Z,24.52
2023-01-07T05:42:00.332Z,29.63
2023-01-07T05:44:48.887Z,21.80
2023-01-07T05:47:16.170Z,21.30
2023-01-07T05:49:43.420Z,24.20
2023-01-07T05:52:10.854Z,19.70
2023-01-07T05:54:38.183Z,26.30
2023-01-07T05:57:05.818Z,20.70
2023-01-07T05:59:34.820Z,21.13
2023-01-07T06:02:02.438Z,19.35
2023-01-07T06:04:29.865Z,18.55
2023-01-07T06:06:57.138Z,19.10
2023-01-07T06:09:24.571Z,22.48
2023-01-07T06:11:51.836Z,19.67
2023-01-07T06:14:19.271Z,19.27
2023-01-07T06:16:46.675Z,16.75
2023-01-07T06:19:14.127Z,17.45
2023-01-07T06:21:42.602Z,16.20
2023-01-07T06:24:11.477Z,20.20
2023-01-07T06:26:38.832Z,18.00
2023-01-07T06:29:06.046Z,19.42
2023-01-07T06:31:33.725Z,22.20
2023-01-07T06:34:01.121Z,16.85
2023-01-07T06:36:28.534Z,17.13
2023-01-07T06:38:55.757Z,14.48
2023-01-07T06:41:23.494Z,14.85
2023-01-07T06:43:50.750Z,16.60
2023-01-07T06:46:18.267Z,18.20
2023-01-07T06:48:45.772Z,14.50
2023-01-07T06:51:13.105Z,14.77
2023-01-07T06:53:40.391Z,13.27
2023-01-07T06:56:07.706Z,17.63
2023-01-07T06:58:35.012Z,13.77
2023-01-07T07:01:06.878Z,16.52
2023-01-07T07:03:34.310Z,15.02
2023-01-07T07:06:01.737Z,15.50
2023-01-07T07:08:29.133Z,15.10
2023-01-07T07:10:56.568Z,16.67
2023-01-07T07:13:23.923Z,15.57
2023-01-07T07:15:51.390Z,13.07
2023-01-07T07:18:18.941Z,12.27
2023-01-07T07:20:46.931Z,15.85
2023-01-07T07:23:14.589Z,14.80
2023-01-07T07:25:42.741Z,17.48
2023-01-07T07:28:10.534Z,12.82
2023-01-07T07:30:45.616Z,11.70
2023-01-07T07:33:15.279Z,13.88
2023-01-07T07:35:42.808Z,15.38
2023-01-07T07:38:10.158Z,13.77
2023-01-07T07:40:37.411Z,12.82
2023-01-07T07:43:11.143Z,11.95
2023-01-07T07:45:41.436Z,11.20
2023-01-07T07:48:10.134Z,13.13
2023-01-07T07:50:37.718Z,12.80
2023-01-07T07:53:05.114Z,11.70
2023-01-07T07:55:32.379Z,15.32
2023-01-07T07:57:59.768Z,11.32
2023-01-07T08:00:27.164Z,14.93
2023-01-07T08:02:59.266Z,10.27
2023-01-07T08:05:27.584Z,12.55
2023-01-07T08:07:54.902Z,10.93
2023-01-07T08:10:25.351Z,10.35
2023-01-07T08:12:52.943Z,11.40
2023-01-07T08:15:20.532Z,9.70
2023-01-07T08:17:47.856Z,15.13
2023-01-07T08:20:15.485Z,10.10
2023-01-07T08:22:42.817Z,11.50
2023-01-07T08:25:10.457Z,9.25
2023-01-07T08:27:37.779Z,10.57
2023-01-07T08:30:05.447Z,10.85
2023-01-07T08:32:32.714Z,10.20
2023-01-07T08:35:00.423Z,9.45
2023-01-07T08:37:30.338Z,9.52
2023-01-07T08:39:57.783Z,9.85
2023-01-07T08:42:25.083Z,7.78
2023-01-07T08:44:52.478Z,12.15
2023-01-07T08:47:19.767Z,13.45
2023-01-07T08:49:47.299Z,8.52
2023-01-07T08:52:14.616Z,7.78
2023-01-07T08:54:41.982Z,6.80
2023-01-07T08:57:09.273Z,7.72
2023-01-07T08:59:38.994Z,10.25
2023-01-07T09:02:17.877Z,7.32
2023-01-07T09:04:45.614Z,7.15
2023-01-07T09:07:12.981Z,7.35
2023-01-07T09:09:41.256Z,7.40
2023-01-07T09:12:11.496Z,7.50
2023-01-07T09:14:38.852Z,6.65
2023-01-07T09:17:06.116Z,8.13
2023-01-07T09:19:33.409Z,8.57
2023-01-07T09:22:00.771Z,8.40
2023-01-07T09:24:28.076Z,5.72
2023-01-07T09:26:55.727Z,7.90
2023-01-07T09:29:23.028Z,6.32
2023-01-07T09:31:50.475Z,8.52
2023-01-07T09:34:17.876Z,6.03
2023-01-07T09:36:45.287Z,6.05
2023-01-07T09:39:13.075Z,7.72
2023-01-07T09:42:02.984Z,6.88
2023-01-07T09:44:30.329Z,6.05
2023-01-07T09:46:58.033Z,6.47
2023-01-07T09:49:29.918Z,5.15
2023-01-07T09:52:26.487Z,5.82
2023-01-07T09:55:02.189Z,6.97
2023-01-07T09:57:29.703Z,4.57
2023-01-07T09:59:57.260Z,5.28
2023-01-07T10:03:10.977Z,5.93
2023-01-07T10:06:01.655Z,5.68
2023-01-07T10:08:44.916Z,5.78
2023-01-07T10:11:35.829Z,5.88
2023-01-07T10:16:54.538Z,5.07
2023-01-07T10:19:29.090Z,5.25
2023-01-07T10:22:03.119Z,3.80
2023-01-07T10:24:56.046Z,4.55
2023-01-07T10:27:32.492Z,5.05
2023-01-07T10:30:03.565Z,4.43
2023-01-07T10:32:33.692Z,3.38
2023-01-07T10:35:01.924Z,3.33
2023-01-07T10:37:38.419Z,3.42
2023-01-07T10:40:15.202Z,3.47
2023-01-07T10:43:05.324Z,4.10
2023-01-07T10:45:55.991Z,3.85
2023-01-07T10:48:46.777Z,4.05
2023-01-07T10:51:51.700Z,3.42
2023-01-07T10:54:47.017Z,3.75
2023-01-07T10:57:22.769Z,3.13
2023-01-07T11:00:06.758Z,4.95
2023-01-07T11:02:34.235Z,3.30
2023-01-07T11:05:01.803Z,4.40
2023-01-07T11:07:36.936Z,4.93
2023-01-07T11:10:05.886Z,4.75
2023-01-07T11:12:50.574Z,2.40
2023-01-07T11:15:26.779Z,3.58
2023-01-07T11:18:12.543Z,3.72
2023-01-07T11:20:51.846Z,2.63
2023-01-07T11:23:44.268Z,3.90
2023-01-07T11:26:14.770Z,4.60
2023-01-07T11:28:53.728Z,4.30
2023-01-07T11:31:24.022Z,2.30
2023-01-07T11:34:03.141Z,2.70
2023-01-07T11:36:43.409Z,3.07
2023-01-07T11:39:18.741Z,2.55
2023-01-07T11:41:55.373Z,3.13
2023-01-07T11:44:48.505Z,3.13
2023-01-07T11:47:19.863Z,4.22
2023-01-07T11:49:48.992Z,2.22
2023-01-07T11:52:25.803Z,4.38
2023-01-07T11:54:53.816Z,8.38
2023-01-07T11:57:24.377Z,3.22
2023-01-07T12:00:17.923Z,4.45
2023-01-07T12:02:45.617Z,1.88
2023-01-07T12:05:24.769Z,2.38
2023-01-07T12:07:52.711Z,1.90
2023-01-07T12:10:24.906Z,2.25
2023-01-07T12:12:52.584Z,3.13
2023-01-07T12:15:24.631Z,2.30
2023-01-07T12:18:03.569Z,1.67
2023-01-07T12:20:51.671Z,1.48
2023-01-07T12:23:32.185Z,1.83
2023-01-07T12:26:12.687Z,1.70
2023-01-07T12:28:55.246Z,2.50
2023-01-07T12:31:47.723Z,1.60
2023-01-07T12:34:26.529Z,3.00
2023-01-07T12:37:10.297Z,1.83
2023-01-07T12:39:44.414Z,1.63
2023-01-07T12:42:24.782Z,1.60
2023-01-07T12:45:04.335Z,1.60
2023-01-07T12:47:40.023Z,1.77
2023-01-07T12:50:26.212Z,3.42
2023-01-07T12:53:01.696Z,3.65
2023-01-07T12:55:34.351Z,1.92
2023-01-07T12:58:27.219Z,1.60
2023-01-07T13:01:02.518Z,1.80
2023-01-07T13:03:32.913Z,2.10
2023-01-07T13:06:07.443Z,4.70
2023-01-07T13:08:40.681Z,1.98
2023-01-07T13:12:03.428Z,1.88
2023-01-07T13:14:42.336Z,1.95
2023-01-07T13:17:26.889Z,2.28
2023-01-07T13:19:55.173Z,1.55
2023-01-07T13:22:56.414Z,1.45
2023-01-07T13:25:42.607Z,1.77
2023-01-07T13:28:24.236Z,1.60
2023-01-07T13:31:25.681Z,2.70
2023-01-07T13:34:11.441Z,3.83
2023-01-07T13:36:50.817Z,3.15
2023-01-07T13:39:54.980Z,2.33
2023-01-07T13:42:25.395Z,1.73
2023-01-07T13:44:55.769Z,2.05
2023-01-07T13:47:27.449Z,3.42
2023-01-07T13:50:00.563Z,2.15
2023-01-07T13:52:31.269Z,1.80
2023-01-07T13:57:27.274Z,3.47
2023-01-07T13:59:56.371Z,2.03
2023-01-07T14:02:28.383Z,1.80
2023-01-07T14:05:06.400Z,3.13
2023-01-07T14:07:46.423Z,1.75
2023-01-07T14:10:35.183Z,2.80
2023-01-07T14:13:23.627Z,4.85
2023-01-07T14:16:29.361Z,2.90
2023-01-07T14:19:18.104Z,3.28
2023-01-07T14:21:58.230Z,2.75
2023-01-07T14:24:44.163Z,2.92
2023-01-07T14:27:32.888Z,8.73
2023-01-07T14:30:23.142Z,2.20
2023-01-07T14:33:21.641Z,2.33
2023-01-07T14:36:08.972Z,2.50
2023-01-07T14:38:36.221Z,1.60
2023-01-07T14:41:03.496Z,1.90
2023-01-07T14:43:46.024Z,3.10
2023-01-07T14:46:22.580Z,2.13
2023-01-07T14:49:02.415Z,2.45
2023-01-07T14:51:45.013Z,1.87
2023-01-07T14:54:29.249Z,1.70
2023-01-07T14:57:14.684Z,1.70
2023-01-07T15:00:29.832Z,2.20
2023-01-07T15:03:22.861Z,1.70
2023-01-07T15:06:06.829Z,2.67
2023-01-07T15:09:05.366Z,2.42
2023-01-07T15:11:52.827Z,1.80
2023-01-07T15:14:45.782Z,2.95
2023-01-07T15:17:15.254Z,2.15
2023-01-07T15:19:44.458Z,3.50
2023-01-07T15:22:36.783Z,3.35
2023-01-07T15:25:56.610Z,1.65
2023-01-07T15:28:34.791Z,1.90
2023-01-07T15:31:21.533Z,2.20
2023-01-07T15:33:55.520Z,1.90
2023-01-07T15:36:23.590Z,2.75
2023-01-07T15:38:54.823Z,1.92
2023-01-07T15:41:35.927Z,2.30
2023-01-07T15:44:42.428Z,2.22
2023-01-07T15:47:37.979Z,2.03
2023-01-07T15:50:23.363Z,2.13
2023-01-07T15:52:52.301Z,2.33
2023-01-07T15:55:44.960Z,2.05
2023-01-07T15:58:17.085Z,2.17
2023-01-07T16:00:44.676Z,4.00
2023-01-07T16:03:17.226Z,3.17
2023-01-07T16:05:45.019Z,2.83
2023-01-07T16:08:22.139Z,2.15
2023-01-07T16:11:20.617Z,2.42
2023-01-07T16:14:03.381Z,2.65
2023-01-07T16:16:32.477Z,2.28
2023-01-07T16:19:02.021Z,2.75
2023-01-07T16:21:37.073Z,2.42
2023-01-07T16:24:05.176Z,2.60
2023-01-07T16:26:38.453Z,3.13
2023-01-07T16:29:13.621Z,2.65
2023-01-07T16:31:41.004Z,2.72
2023-01-07T16:34:23.716Z,2.50
2023-01-07T16:36:59.782Z,2.70
2023-01-07T16:39:41.910Z,3.17
2023-01-07T16:42:20.560Z,2.65
2023-01-07T16:44:49.612Z,2.22
2023-01-07T16:47:22.683Z,2.53
2023-01-07T16:49:52.564Z,2.65
2023-01-07T16:52:29.928Z,2.43
2023-01-07T16:54:57.504Z,4.03
2023-01-07T16:57:30.081Z,2.45
2023-01-07T17:00:01.654Z,3.08
2023-01-07T17:02:33.926Z,2.35
2023-01-07T17:05:36.629Z,2.50
2023-01-07T17:08:15.690Z,2.20
2023-01-07T17:10:47.691Z,3.05
2023-01-07T17:13:14.930Z,2.50
2023-01-07T17:16:08.637Z,2.33
2023-01-07T17:23:38.106Z,2.55
2023-01-07T17:31:02.698Z,2.65
2023-01-07T17:34:32.498Z,2.85
2023-01-07T17:37:24.591Z,3.17
2023-01-07T17:39:51.879Z,2.92
2023-01-07T17:42:44.354Z,3.03
2023-01-07T17:45:17.573Z,3.63
2023-01-07T17:47:45.505Z,3.00
2023-01-07T17:50:14.782Z,3.40
2023-01-07T17:52:45.208Z,3.05
2023-01-07T17:55:24.121Z,3.22
2023-01-07T17:57:55.647Z,3.55
2023-01-07T18:01:58.172Z,4.45
2023-01-07T18:06:00.178Z,3.20
2023-01-07T18:13:40.078Z,4.22
2023-01-07T18:20:19.140Z,3.67
2023-01-07T18:26:19.506Z,3.83
2023-01-07T18:28:47.693Z,4.18
2023-01-07T18:31:15.758Z,3.17
2023-01-07T18:33:43.166Z,4.18
2023-01-07T18:36:11.710Z,4.63
2023-01-07T18:38:39.360Z,3.95
2023-01-07T18:41:06.837Z,5.75
2023-01-07T18:43:35.058Z,4.05
2023-01-07T18:46:08.060Z,3.17
2023-01-07T18:48:38.243Z,4.10
2023-01-07T18:51:10.760Z,4.05
2023-01-07T18:53:40.177Z,5.05
2023-01-07T18:56:12.713Z,5.25
2023-01-07T18:58:44.343Z,4.18
2023-01-07T19:01:12.457Z,4.25
2023-01-07T19:03:48.060Z,4.30
2023-01-07T19:06:18.228Z,3.97
2023-01-07T19:08:45.767Z,4.43
2023-01-07T19:11:17.127Z,3.53
2023-01-07T19:13:44.520Z,5.47
2023-01-07T19:16:21.928Z,5.38
2023-01-07T19:18:53.237Z,3.65
2023-01-07T19:21:29.464Z,4.38
2023-01-07T19:23:59.400Z,4.28
2023-01-07T19:29:15.427Z,3.88
2023-01-07T19:31:45.690Z,5.55
2023-01-07T19:34:14.502Z,4.03
2023-01-07T19:36:46.986Z,5.72
2023-01-07T19:39:20.847Z,4.30
2023-01-07T19:41:49.035Z,4.75
2023-01-07T19:44:21.002Z,5.68
2023-01-07T19:46:55.154Z,4.40
2023-01-07T19:49:37.316Z,4.90
2023-01-07T19:52:05.887Z,4.22
2023-01-07T19:54:35.179Z,3.72
2023-01-07T19:57:02.538Z,3.90
2023-01-07T19:59:33.374Z,4.32
2023-01-07T20:02:03.120Z,5.95
2023-01-07T20:04:30.984Z,3.35
2023-01-07T20:06:58.909Z,4.47
2023-01-07T20:09:28.562Z,4.18
2023-01-07T20:11:57.239Z,5.13
2023-01-07T20:14:24.593Z,4.80
2023-01-07T20:16:56.197Z,3.20
2023-01-07T20:19:24.408Z,3.40
2023-01-07T20:21:52.529Z,3.30
2023-01-07T20:24:20.214Z,4.15
2023-01-07T20:26:48.700Z,3.60
2023-01-07T20:29:18.557Z,3.58
2023-01-07T20:31:46.220Z,3.38
2023-01-07T20:34:13.655Z,3.10
2023-01-07T20:36:42.814Z,3.65
2023-01-07T20:39:13.714Z,4.20
2023-01-07T20:41:41.633Z,3.85
2023-01-07T20:44:11.680Z,3.53
2023-01-07T20:46:42.491Z,3.15
2023-01-07T20:51:38.877Z,3.10
2023-01-07T20:54:06.816Z,3.17
2023-01-07T20:56:34.932Z,5.05
2023-01-07T20:59:03.314Z,5.10
2023-01-07T21:01:31.774Z,3.08
2023-01-07T21:04:02.442Z,3.13
2023-01-07T21:09:25.948Z,4.20
2023-01-07T21:11:58.410Z,3.30
2023-01-07T21:14:32.681Z,3.95
2023-01-07T21:17:05.519Z,3.22
2023-01-07T21:19:38.280Z,3.10
2023-01-07T21:22:07.379Z,4.93
2023-01-07T21:24:42.003Z,3.70
2023-01-07T21:27:09.979Z,3.10
2023-01-07T21:29:38.916Z,3.13
2023-01-07T21:32:08.356Z,3.05
2023-01-07T21:34:46.989Z,3.58
2023-01-07T21:37:20.604Z,3.83
2023-01-07T21:39:54.910Z,3.33
2023-01-07T21:42:22.651Z,4.05
2023-01-07T21:44:50.974Z,5.75
2023-01-07T21:47:37.320Z,3.05
2023-01-07T21:50:15.233Z,3.10
2023-01-07T21:52:47.322Z,3.60
2023-01-07T21:55:14.862Z,3.20
2023-01-07T21:57:47.104Z,4.10
2023-01-07T22:00:20.062Z,3.05
2023-01-07T22:02:50.197Z,3.83
2023-01-07T22:05:17.983Z,3.60
2023-01-07T22:07:49.610Z,3.72
2023-01-07T22:10:17.869Z,4.68
2023-01-07T22:12:55.074Z,3.17
2023-01-07T22:15:37.401Z,8.07
2023-01-07T22:18:05.853Z,4.70
2023-01-07T22:20:33.256Z,4.63
2023-01-07T22:23:13.486Z,2.92
2023-01-07T22:25:43.731Z,3.00
2023-01-07T22:28:15.620Z,7.47
2023-01-07T22:30:47.677Z,3.03
2023-01-07T22:33:22.954Z,3.35
2023-01-07T22:36:03.534Z,3.80
2023-01-07T22:41:12.414Z,5.00
2023-01-07T22:43:47.205Z,2.90
2023-01-07T22:49:44.309Z,5.95
2023-01-07T22:52:20.845Z,3.60
2023-01-07T22:55:32.614Z,4.28
2023-01-07T22:58:10.069Z,3.40
2023-01-07T23:00:52.034Z,4.72
2023-01-07T23:03:22.295Z,3.85
2023-01-07T23:06:02.966Z,3.65
2023-01-07T23:08:31.972Z,3.67
2023-01-07T23:11:01.971Z,3.92
2023-01-07T23:13:33.056Z,3.60
2023-01-07T23:16:02.972Z,3.90
2023-01-07T23:18:33.779Z,4.30
2023-01-07T23:21:19.752Z,3.33
2023-01-07T23:23:57.179Z,4.20
2023-01-07T23:26:57.422Z,3.90
2023-01-07T23:32:38.808Z,3.50
2023-01-07T23:35:22.116Z,3.45
2023-01-07T23:38:03.956Z,3.80
2023-01-07T23:40:35.808Z,3.72
2023-01-07T23:43:07.392Z,3.40
2023-01-07T23:46:17.081Z,3.80
2023-01-07T23:49:13.230Z,3.97
2023-01-07T23:51:44.192Z,5.85
2023-01-07T23:54:34.300Z,4.18
2023-01-07T23:57:02.028Z,3.42
2023-01-07T23:59:30.209Z,3.53
